Flight Track Log - Related Links

Times and Time Zones

All times are in EDT time to prevent confusion due to time zone crossing. See the N799GK flight status page for this flight to view local times or setup timezone preferences in your user account.

Time Position Orientation Groundspeed Altitude Reporting Facility
EDT Latitude Longitude Course Direction KTS MPH feet Rate Location/Type
Tue 10:23:12 PM 30.1542 -97.6886 337° Northwest 132 152 2,800  Level Houston Center
Tue 10:24:12 PM 30.1800 -97.7308 305° West 166 191 4,000 1,190 Climbing Houston Center
Tue 10:25:13 PM 30.2189 -97.7653 323° Northwest 172 198 5,200 1,180 Climbing Houston Center
Tue 10:26:14 PM 30.2689 -97.7686 357° North 175 201 6,400 1,033 Climbing Houston Center
Tue 10:27:15 PM 30.3189 -97.7819 347° North 180 207 7,300 984 Climbing Houston Center
Tue 10:28:00 PM 30.4409 -97.7871 337° Northwest  Level FlightAware Approximate
Tue 10:28:16 PM 30.3661 -97.8072 335° Northwest 182 209 8,400  Level Houston Center
Tue 10:29:17 PM 30.4092 -97.8372 329° Northwest 180 207 9,700 1,082 Climbing Houston Center
Tue 10:30:18 PM 30.4575 -97.8469 350° North 176 203 10,600 885 Climbing Houston Center
Tue 10:31:19 PM 30.5031 -97.8672 339° North 173 199 11,500 836 Climbing Houston Center
Tue 10:32:20 PM 30.5511 -97.8858 342° North 178 205 12,300 787 Climbing Houston Center
Tue 10:33:21 PM 30.6000 -97.9047 342° North 182 209 13,100 738 Climbing Houston Center
Tue 10:34:22 PM 30.6481 -97.9289 337° Northwest 183 211 13,800 689 Climbing Houston Center
Tue 10:35:23 PM 30.6989 -97.9478 342° North 187 215 14,500 787 Climbing Houston Center
Tue 10:36:24 PM 30.7483 -97.9667 342° North 185 213 15,400 787 Climbing Houston Center
Tue 10:37:25 PM 30.8081 -97.9831 347° North 185 213 16,100 639 Climbing Houston Center
Tue 10:38:26 PM 30.8603 -97.9989 345° North 190 219 16,700 593 Climbing Houston Center
Tue 10:38:46 PM 30.8758 -98.0064 338° Northwest 190 219 16,900 300 Climbing Fort Worth Center
Tue 10:39:46 PM 30.9278 -98.0283 340° North 191 220 17,100 100 Climbing Fort Worth Center
Tue 10:40:46 PM 30.9736 -98.0553 333° Northwest 191 220 17,100  Level Fort Worth Center
Tue 10:41:46 PM 31.0319 -98.0728 346° North 208 239 17,100 -50 Level Fort Worth Center
Tue 10:42:46 PM 31.0967 -98.0878 349° North 221 254 17,000 -50 Descending Fort Worth Center
Tue 10:43:46 PM 31.1528 -98.1125 339° North 221 254 17,000  Level Fort Worth Center
Tue 10:44:46 PM 31.2092 -98.1394 338° Northwest 221 254 17,000 50 Level Fort Worth Center
Tue 10:45:46 PM 31.2758 -98.1425 358° North 211 243 17,100 200 Climbing Fort Worth Center
Tue 10:46:46 PM 31.3367 -98.1114 24° Northeast 218 251 17,400 750 Climbing Fort Worth Center
Tue 10:47:46 PM 31.3847 -98.0825 27° Northeast 212 244 18,600 800 Climbing Fort Worth Center
Tue 10:48:46 PM 31.4350 -98.0633 18° North 189 217 19,000 200 Climbing Fort Worth Center
Tue 10:49:46 PM 31.4936 -98.0517 10° North 201 231 19,000  Level Fort Worth Center
Tue 10:50:46 PM 31.5603 -98.0278 17° North 228 262 19,000  Level Fort Worth Center
Tue 10:51:46 PM 31.6253 -98.0086 14° North 233 268 19,000 -500 Level Fort Worth Center
Tue 10:52:46 PM 31.6922 -97.9822 19° North 243 280 18,000 -1,000 Descending Fort Worth Center
Tue 10:53:46 PM 31.7592 -97.9558 19° North 263 303 17,000 -1,400 Descending Fort Worth Center
Tue 10:54:46 PM 31.8364 -97.9294 16° North 272 313 15,200 -1,700 Descending Fort Worth Center
Tue 10:55:46 PM 31.9075 -97.9053 16° North 272 313 13,600 -1,600 Descending Fort Worth Center
Tue 10:56:46 PM 31.9806 -97.8886 11° North 246 283 12,000 -1,250 Descending Fort Worth Center
Tue 10:57:46 PM 32.0372 -97.8667 18° North 236 272 11,100 -1,100 Descending Fort Worth Center
Tue 10:58:46 PM 32.1061 -97.8425 17° North 236 272 9,800 -1,300 Descending Fort Worth Center
Tue 10:59:46 PM 32.1689 -97.8233 14° North 241 277 8,500 -1,150 Descending Fort Worth Center
Tue 11:00:46 PM 32.2419 -97.7989 16° North 241 277 7,500 -900 Descending Fort Worth Center
Tue 11:01:46 PM 32.3006 -97.7797 15° North 241 277 6,700 -800 Descending Fort Worth Center
Tue 11:02:46 PM 32.3675 -97.7481 22° Northeast 241 277 5,900 -750 Descending Fort Worth Center
Tue 11:03:46 PM 32.4197 -97.7014 37° Northeast 234 269 5,200 -400 Descending Fort Worth Center
Tue 11:04:46 PM 32.4719 -97.6597 34° Northeast 234 269 5,100 -50 Descending Fort Worth Center
Tue 11:05:46 PM 32.5283 -97.6278 26° Northeast 221 254 5,100  Level Fort Worth Center
Tue 11:06:46 PM 32.5828 -97.5958 26° Northeast 216 249 5,100  Level Fort Worth Center
Tue 11:07:46 PM 32.6350 -97.5614 29° Northeast 216 249 5,100  Level Fort Worth Center
Tue 11:08:46 PM 32.6872 -97.5269 29° Northeast 216 249 5,100 -300 Level Fort Worth Center
Tue 11:09:46 PM 32.7436 -97.4900 29° Northeast 221 254 4,500 -400 Descending Fort Worth Center
Tue 11:10:46 PM 32.8000 -97.4506 30° Northeast 226 260 4,300 -200 Descending Fort Worth Center
Tue 11:11:46 PM 32.8542 -97.4333 15° North 219 252 4,100 -100 Descending Fort Worth Center
Tue 11:12:46 PM 32.9106 -97.3911 32° Northeast 212 244 4,100  Level Fort Worth Center
Tue 11:13:46 PM 32.9586 -97.3564 31° Northeast 212 244 4,100  Level Fort Worth Center
Tue 11:14:46 PM 33.0233 -97.3367 14° North 212 244 4,100  Level Fort Worth Center
Tue 11:16:56 PM 33.1500 -97.2833 19° North 221 254 4,100  Level Dallas / Fort Worth TRACON

Login

Don't have an account? Register now (free) for customized features, flight alerts, and more!